createdAt,value
2017-09-24T00:01:40.680Z,14.87
2017-09-24T00:04:14.560Z,13.25
2017-09-24T00:06:49.897Z,14.13
2017-09-24T00:09:24.714Z,11.27
2017-09-24T00:11:59.590Z,11.32
2017-09-24T00:14:33.489Z,12.52
2017-09-24T00:17:07.418Z,13.50
2017-09-24T00:19:41.238Z,12.32
2017-09-24T00:22:15.334Z,12.00
2017-09-24T00:24:51.207Z,14.30
2017-09-24T00:27:25.469Z,13.98
2017-09-24T00:30:00.105Z,16.67
2017-09-24T00:32:34.608Z,12.98
2017-09-24T00:35:08.835Z,16.25
2017-09-24T00:37:43.531Z,14.25
2017-09-24T00:40:18.485Z,12.45
2017-09-24T00:42:53.165Z,11.93
2017-09-24T00:45:29.881Z,11.48
2017-09-24T00:48:03.903Z,12.73
2017-09-24T00:50:38.490Z,12.70
2017-09-24T00:53:12.750Z,12.57
2017-09-24T00:55:47.305Z,11.60
2017-09-24T00:58:21.702Z,12.88
2017-09-24T01:00:56.876Z,13.88
2017-09-24T01:03:30.859Z,16.67
2017-09-24T01:06:04.805Z,14.70
2017-09-24T19:22:31.787Z,8.40
2017-09-24T19:25:06.141Z,7.60
2017-09-24T19:27:40.820Z,6.78
2017-09-24T19:30:14.861Z,6.90
2017-09-24T19:32:49.670Z,6.03
2017-09-24T19:35:26.527Z,6.87
2017-09-24T19:38:00.499Z,5.82
2017-09-24T19:40:35.222Z,6.28
2017-09-24T19:43:09.569Z,7.68
2017-09-24T19:45:43.712Z,6.82
2017-09-24T19:48:17.701Z,6.80
2017-09-24T19:50:52.414Z,6.65
2017-09-24T19:53:27.387Z,6.60
2017-09-24T19:56:01.216Z,7.22
2017-09-24T19:58:36.736Z,7.40
2017-09-24T20:01:10.469Z,7.90
2017-09-24T20:03:44.393Z,6.90
2017-09-24T20:06:18.099Z,6.80
2017-09-24T20:08:51.818Z,7.37
2017-09-24T20:11:26.472Z,7.95
2017-09-24T20:14:01.116Z,7.20
2017-09-24T20:16:35.057Z,7.32
2017-09-24T20:19:08.839Z,7.75
2017-09-24T20:21:42.739Z,7.97
2017-09-24T20:24:16.643Z,8.38
2017-09-24T20:26:50.801Z,9.48
2017-09-24T20:29:24.608Z,10.05
2017-09-24T20:31:58.507Z,12.90
2017-09-24T20:34:32.607Z,13.73
2017-09-24T20:37:06.456Z,11.77
2017-09-24T20:39:40.182Z,16.27
2017-09-24T20:42:13.970Z,11.52
2017-09-24T20:44:47.940Z,10.05
2017-09-24T20:47:22.644Z,13.02
2017-09-24T20:49:57.100Z,15.45
2017-09-24T20:52:31.042Z,10.45
2017-09-24T20:55:04.932Z,11.50
2017-09-24T20:57:38.770Z,9.05
2017-09-24T21:00:13.317Z,10.32
2017-09-24T21:02:47.838Z,10.57
2017-09-24T21:05:21.999Z,13.57
2017-09-24T21:07:55.894Z,8.73
2017-09-24T21:10:29.861Z,10.75
2017-09-24T21:13:04.741Z,11.60
2017-09-24T21:15:39.575Z,11.50
2017-09-24T21:18:13.389Z,13.88
2017-09-24T21:20:47.245Z,9.20
2017-09-24T21:23:22.025Z,10.07
2017-09-24T21:25:56.030Z,7.78
2017-09-24T21:28:29.932Z,9.00
2017-09-24T21:31:03.803Z,7.37
2017-09-24T21:33:37.948Z,10.55
2017-09-24T21:36:11.722Z,8.05
2017-09-24T21:38:45.572Z,10.68
2017-09-24T21:41:20.139Z,7.95
2017-09-24T21:43:54.017Z,12.65
2017-09-24T21:46:27.874Z,8.55
2017-09-24T21:49:01.664Z,9.30
2017-09-24T21:51:35.658Z,9.68
2017-09-24T21:54:09.508Z,10.70
2017-09-24T21:56:43.499Z,7.90
2017-09-24T21:59:17.306Z,7.25
2017-09-24T22:01:51.138Z,8.73
2017-09-24T22:04:25.145Z,8.70
2017-09-24T22:06:59.068Z,7.87
2017-09-24T22:09:32.863Z,7.80
2017-09-24T22:12:06.595Z,9.55
2017-09-24T22:14:40.375Z,8.60
2017-09-24T22:17:15.065Z,9.88
2017-09-24T22:19:49.199Z,10.68
2017-09-24T22:22:24.656Z,9.00
2017-09-24T22:24:58.494Z,10.93
2017-09-24T22:27:33.103Z,8.43
2017-09-24T22:30:06.845Z,8.65
2017-09-24T22:32:40.728Z,8.40
2017-09-24T22:35:15.347Z,9.40
2017-09-24T22:37:49.200Z,9.43
2017-09-24T22:40:23.113Z,9.55
2017-09-24T22:42:56.968Z,9.93
2017-09-24T22:45:31.520Z,9.38
2017-09-24T22:48:05.351Z,9.93
2017-09-24T22:50:39.223Z,10.45
2017-09-24T22:53:13.162Z,8.32
2017-09-24T22:55:47.193Z,11.02
2017-09-24T22:58:21.000Z,7.72
2017-09-24T23:00:54.766Z,9.35
2017-09-24T23:03:28.538Z,8.30
2017-09-24T23:06:03.017Z,9.32
2017-09-24T23:08:36.644Z,7.70
2017-09-24T23:11:10.423Z,8.98
2017-09-24T23:13:44.233Z,8.68
2017-09-24T23:16:18.101Z,8.13
2017-09-24T23:18:51.889Z,9.55
2017-09-24T23:21:25.674Z,7.85
2017-09-24T23:24:00.837Z,11.07
2017-09-24T23:26:34.865Z,6.87
2017-09-24T23:29:09.453Z,9.10
2017-09-24T23:31:43.264Z,15.43
2017-09-24T23:34:18.049Z,9.30
2017-09-24T23:36:52.621Z,8.18
2017-09-24T23:39:27.204Z,7.68
2017-09-24T23:42:02.011Z,10.13
2017-09-24T23:44:36.824Z,7.20
2017-09-24T23:47:11.535Z,9.20
2017-09-24T23:49:46.102Z,7.80
2017-09-24T23:52:19.974Z,8.70
2017-09-24T23:54:54.069Z,11.30
2017-09-24T23:57:28.274Z,10.55
